sensor_id;sensor_type;location;lat;lon;timestamp;temperature;humidity
7494;DHT22;3788;49.902;8.590;2022-09-16T00:01:40;16.60;92.70
7494;DHT22;3788;49.902;8.590;2022-09-16T00:04:08;16.60;92.60
7494;DHT22;3788;49.902;8.590;2022-09-16T00:06:35;16.60;92.70
7494;DHT22;3788;49.902;8.590;2022-09-16T00:09:02;16.60;92.70
7494;DHT22;3788;49.902;8.590;2022-09-16T00:11:31;16.60;92.80
7494;DHT22;3788;49.902;8.590;2022-09-16T00:13:59;16.60;92.80
7494;DHT22;3788;49.902;8.590;2022-09-16T00:16:27;16.60;92.80
7494;DHT22;3788;49.902;8.590;2022-09-16T00:18:55;16.60;92.80
7494;DHT22;3788;49.902;8.590;2022-09-16T00:21:25;16.60;92.90
7494;DHT22;3788;49.902;8.590;2022-09-16T00:23:51;16.60;92.90
7494;DHT22;3788;49.902;8.590;2022-09-16T00:26:18;16.60;92.90
7494;DHT22;3788;49.902;8.590;2022-09-16T00:28:47;16.60;93.00
7494;DHT22;3788;49.902;8.590;2022-09-16T00:31:14;16.50;93.00
7494;DHT22;3788;49.902;8.590;2022-09-16T00:33:41;16.50;93.10
7494;DHT22;3788;49.902;8.590;2022-09-16T00:36:10;16.50;93.10
7494;DHT22;3788;49.902;8.590;2022-09-16T00:38:39;16.50;93.20
7494;DHT22;3788;49.902;8.590;2022-09-16T00:41:06;16.50;93.30
7494;DHT22;3788;49.902;8.590;2022-09-16T00:43:48;16.50;93.30
7494;DHT22;3788;49.902;8.590;2022-09-16T00:46:16;16.50;93.30
7494;DHT22;3788;49.902;8.590;2022-09-16T00:48:44;16.40;93.30
7494;DHT22;3788;49.902;8.590;2022-09-16T00:51:11;16.40;93.40
7494;DHT22;3788;49.902;8.590;2022-09-16T00:53:44;16.40;93.40
7494;DHT22;3788;49.902;8.590;2022-09-16T00:56:15;16.30;93.50
7494;DHT22;3788;49.902;8.590;2022-09-16T00:58:49;16.30;93.50
7494;DHT22;3788;49.902;8.590;2022-09-16T01:01:19;16.30;93.50
7494;DHT22;3788;49.902;8.590;2022-09-16T01:03:50;16.30;93.40
7494;DHT22;3788;49.902;8.590;2022-09-16T01:06:18;16.30;93.40
7494;DHT22;3788;49.902;8.590;2022-09-16T01:08:49;16.30;93.40
7494;DHT22;3788;49.902;8.590;2022-09-16T01:11:16;16.20;93.40
7494;DHT22;3788;49.902;8.590;2022-09-16T01:13:43;16.30;93.50
7494;DHT22;3788;49.902;8.590;2022-09-16T01:16:14;16.20;93.50
7494;DHT22;3788;49.902;8.590;2022-09-16T01:18:48;16.20;93.50
7494;DHT22;3788;49.902;8.590;2022-09-16T01:21:24;16.20;93.60
7494;DHT22;3788;49.902;8.590;2022-09-16T01:27:31;16.30;93.70
7494;DHT22;3788;49.902;8.590;2022-09-16T01:30:10;16.20;93.70
7494;DHT22;3788;49.902;8.590;2022-09-16T01:32:48;16.20;93.80
7494;DHT22;3788;49.902;8.590;2022-09-16T01:35:22;16.20;93.80
7494;DHT22;3788;49.902;8.590;2022-09-16T01:37:59;16.20;93.90
7494;DHT22;3788;49.902;8.590;2022-09-16T01:40:32;16.20;94.00
7494;DHT22;3788;49.902;8.590;2022-09-16T01:43:04;16.20;94.10
7494;DHT22;3788;49.902;8.590;2022-09-16T01:45:38;16.20;94.20
7494;DHT22;3788;49.902;8.590;2022-09-16T01:48:12;16.20;94.30
7494;DHT22;3788;49.902;8.590;2022-09-16T01:50:44;16.20;94.30
7494;DHT22;3788;49.902;8.590;2022-09-16T01:53:15;16.10;94.40
7494;DHT22;3788;49.902;8.590;2022-09-16T01:55:47;16.10;94.40
7494;DHT22;3788;49.902;8.590;2022-09-16T01:58:20;16.20;94.40
7494;DHT22;3788;49.902;8.590;2022-09-16T02:00:49;16.10;94.30
7494;DHT22;3788;49.902;8.590;2022-09-16T02:03:21;16.10;94.30
7494;DHT22;3788;49.902;8.590;2022-09-16T02:05:52;16.10;94.30
7494;DHT22;3788;49.902;8.590;2022-09-16T02:08:25;16.10;94.20
7494;DHT22;3788;49.902;8.590;2022-09-16T02:10:55;16.20;94.20
7494;DHT22;3788;49.902;8.590;2022-09-16T02:13:27;16.10;94.20
7494;DHT22;3788;49.902;8.590;2022-09-16T02:15:58;16.10;94.00
7494;DHT22;3788;49.902;8.590;2022-09-16T02:18:31;16.10;94.00
7494;DHT22;3788;49.902;8.590;2022-09-16T02:21:00;16.10;93.90
7494;DHT22;3788;49.902;8.590;2022-09-16T02:23:31;16.10;93.80
7494;DHT22;3788;49.902;8.590;2022-09-16T02:26:00;16.10;93.80
7494;DHT22;3788;49.902;8.590;2022-09-16T02:28:30;16.10;93.80
7494;DHT22;3788;49.902;8.590;2022-09-16T02:31:02;16.10;93.70
7494;DHT22;3788;49.902;8.590;2022-09-16T02:33:35;16.10;93.60
7494;DHT22;3788;49.902;8.590;2022-09-16T02:36:04;16.10;93.60
7494;DHT22;3788;49.902;8.590;2022-09-16T02:38:39;16.10;93.60
7494;DHT22;3788;49.902;8.590;2022-09-16T02:41:06;16.10;93.50
7494;DHT22;3788;49.902;8.590;2022-09-16T02:43:39;16.10;93.40
7494;DHT22;3788;49.902;8.590;2022-09-16T02:46:09;16.10;93.20
7494;DHT22;3788;49.902;8.590;2022-09-16T02:48:47;16.00;93.00
7494;DHT22;3788;49.902;8.590;2022-09-16T02:51:24;16.00;92.80
7494;DHT22;3788;49.902;8.590;2022-09-16T02:53:58;16.00;92.70
7494;DHT22;3788;49.902;8.590;2022-09-16T02:56:29;16.00;92.70
7494;DHT22;3788;49.902;8.590;2022-09-16T02:58:56;16.00;92.60
7494;DHT22;3788;49.902;8.590;2022-09-16T03:01:23;16.00;92.50
7494;DHT22;3788;49.902;8.590;2022-09-16T03:03:54;16.00;92.50
7494;DHT22;3788;49.902;8.590;2022-09-16T03:06:22;16.00;92.50
7494;DHT22;3788;49.902;8.590;2022-09-16T03:08:51;16.00;92.60
7494;DHT22;3788;49.902;8.590;2022-09-16T03:11:28;16.00;92.60
7494;DHT22;3788;49.902;8.590;2022-09-16T03:14:10;16.00;92.70
7494;DHT22;3788;49.902;8.590;2022-09-16T03:16:44;16.00;92.70
7494;DHT22;3788;49.902;8.590;2022-09-16T03:19:20;16.00;92.70
7494;DHT22;3788;49.902;8.590;2022-09-16T03:21:54;16.00;92.80
7494;DHT22;3788;49.902;8.590;2022-09-16T03:24:30;16.00;92.90
7494;DHT22;3788;49.902;8.590;2022-09-16T03:27:05;16.00;93.10
7494;DHT22;3788;49.902;8.590;2022-09-16T03:29:37;16.00;93.30
7494;DHT22;3788;49.902;8.590;2022-09-16T03:32:09;15.90;93.40
7494;DHT22;3788;49.902;8.590;2022-09-16T03:34:43;15.90;93.60
7494;DHT22;3788;49.902;8.590;2022-09-16T03:37:15;15.90;93.70
7494;DHT22;3788;49.902;8.590;2022-09-16T03:39:48;15.90;93.70
7494;DHT22;3788;49.902;8.590;2022-09-16T03:42:18;15.90;93.80
7494;DHT22;3788;49.902;8.590;2022-09-16T03:44:45;15.90;93.80
7494;DHT22;3788;49.902;8.590;2022-09-16T03:47:12;15.80;93.80
7494;DHT22;3788;49.902;8.590;2022-09-16T03:49:41;15.80;93.80
7494;DHT22;3788;49.902;8.590;2022-09-16T03:52:08;15.70;93.90
7494;DHT22;3788;49.902;8.590;2022-09-16T03:54:35;15.80;94.00
7494;DHT22;3788;49.902;8.590;2022-09-16T03:57:03;15.80;94.00
7494;DHT22;3788;49.902;8.590;2022-09-16T03:59:29;15.70;94.00
7494;DHT22;3788;49.902;8.590;2022-09-16T04:01:56;15.70;94.40
7494;DHT22;3788;49.902;8.590;2022-09-16T04:04:23;15.70;94.10
7494;DHT22;3788;49.902;8.590;2022-09-16T04:06:51;15.70;94.20
7494;DHT22;3788;49.902;8.590;2022-09-16T04:09:18;15.60;94.20
7494;DHT22;3788;49.902;8.590;2022-09-16T04:11:45;15.60;94.20
7494;DHT22;3788;49.902;8.590;2022-09-16T04:14:11;15.60;94.30
7494;DHT22;3788;49.902;8.590;2022-09-16T04:16:38;15.60;94.30
7494;DHT22;3788;49.902;8.590;2022-09-16T04:19:05;15.60;94.40
7494;DHT22;3788;49.902;8.590;2022-09-16T04:21:32;15.50;94.40
7494;DHT22;3788;49.902;8.590;2022-09-16T04:24:00;15.50;94.60
7494;DHT22;3788;49.902;8.590;2022-09-16T04:26:27;15.50;94.70
7494;DHT22;3788;49.902;8.590;2022-09-16T04:28:53;15.50;94.80
7494;DHT22;3788;49.902;8.590;2022-09-16T04:31:20;15.40;94.80
7494;DHT22;3788;49.902;8.590;2022-09-16T04:33:47;15.40;94.80
7494;DHT22;3788;49.902;8.590;2022-09-16T04:36:15;15.40;94.90
7494;DHT22;3788;49.902;8.590;2022-09-16T04:38:44;15.40;94.90
7494;DHT22;3788;49.902;8.590;2022-09-16T04:41:15;15.40;95.00
7494;DHT22;3788;49.902;8.590;2022-09-16T04:43:42;15.40;94.90
7494;DHT22;3788;49.902;8.590;2022-09-16T04:46:09;15.40;95.00
7494;DHT22;3788;49.902;8.590;2022-09-16T04:48:36;15.40;95.00
7494;DHT22;3788;49.902;8.590;2022-09-16T04:51:04;15.40;95.00
7494;DHT22;3788;49.902;8.590;2022-09-16T04:53:32;15.40;95.00
7494;DHT22;3788;49.902;8.590;2022-09-16T04:56:03;15.40;95.00
7494;DHT22;3788;49.902;8.590;2022-09-16T04:58:32;15.40;95.00
7494;DHT22;3788;49.902;8.590;2022-09-16T05:01:03;15.40;95.00
7494;DHT22;3788;49.902;8.590;2022-09-16T05:03:31;15.40;95.00
7494;DHT22;3788;49.902;8.590;2022-09-16T05:06:04;15.40;95.00
7494;DHT22;3788;49.902;8.590;2022-09-16T05:08:31;15.40;95.00
7494;DHT22;3788;49.902;8.590;2022-09-16T05:11:05;15.40;95.10
7494;DHT22;3788;49.902;8.590;2022-09-16T05:13:34;15.40;95.20
7494;DHT22;3788;49.902;8.590;2022-09-16T05:16:05;15.40;95.30
7494;DHT22;3788;49.902;8.590;2022-09-16T05:18:33;15.40;95.30
7494;DHT22;3788;49.902;8.590;2022-09-16T05:21:01;15.40;95.40
7494;DHT22;3788;49.902;8.590;2022-09-16T05:23:28;15.40;95.40
7494;DHT22;3788;49.902;8.590;2022-09-16T05:25:54;15.40;95.40
7494;DHT22;3788;49.902;8.590;2022-09-16T05:28:21;15.40;95.40
7494;DHT22;3788;49.902;8.590;2022-09-16T05:30:49;15.40;95.50
7494;DHT22;3788;49.902;8.590;2022-09-16T05:33:16;15.40;95.50
7494;DHT22;3788;49.902;8.590;2022-09-16T05:35:46;15.40;95.50
7494;DHT22;3788;49.902;8.590;2022-09-16T05:38:14;15.40;95.50
7494;DHT22;3788;49.902;8.590;2022-09-16T05:40:41;15.40;95.50
7494;DHT22;3788;49.902;8.590;2022-09-16T05:43:07;15.50;95.60
7494;DHT22;3788;49.902;8.590;2022-09-16T05:45:34;15.40;95.90
7494;DHT22;3788;49.902;8.590;2022-09-16T05:48:02;15.40;95.70
7494;DHT22;3788;49.902;8.590;2022-09-16T05:50:29;15.50;95.80
7494;DHT22;3788;49.902;8.590;2022-09-16T05:52:56;15.50;96.00
7494;DHT22;3788;49.902;8.590;2022-09-16T05:55:23;15.60;96.10
7494;DHT22;3788;49.902;8.590;2022-09-16T05:57:50;15.60;96.10
7494;DHT22;3788;49.902;8.590;2022-09-16T06:00:17;15.60;96.10
7494;DHT22;3788;49.902;8.590;2022-09-16T06:02:46;15.60;96.10
7494;DHT22;3788;49.902;8.590;2022-09-16T06:05:14;15.70;96.20
7494;DHT22;3788;49.902;8.590;2022-09-16T06:07:41;15.70;96.10
7494;DHT22;3788;49.902;8.590;2022-09-16T06:10:08;15.70;96.10
7494;DHT22;3788;49.902;8.590;2022-09-16T06:12:34;15.80;96.10
7494;DHT22;3788;49.902;8.590;2022-09-16T06:15:01;15.80;96.10
7494;DHT22;3788;49.902;8.590;2022-09-16T06:17:28;15.90;96.10
7494;DHT22;3788;49.902;8.590;2022-09-16T06:19:54;16.00;96.10
7494;DHT22;3788;49.902;8.590;2022-09-16T06:22:22;16.00;96.10
7494;DHT22;3788;49.902;8.590;2022-09-16T06:24:50;16.10;96.10
7494;DHT22;3788;49.902;8.590;2022-09-16T06:27:17;16.20;96.00
7494;DHT22;3788;49.902;8.590;2022-09-16T06:29:43;16.30;95.80
7494;DHT22;3788;49.902;8.590;2022-09-16T06:32:10;16.30;95.60
7494;DHT22;3788;49.902;8.590;2022-09-16T06:34:37;16.40;95.40
7494;DHT22;3788;49.902;8.590;2022-09-16T06:37:04;16.40;95.10
7494;DHT22;3788;49.902;8.590;2022-09-16T06:39:32;16.40;94.80
7494;DHT22;3788;49.902;8.590;2022-09-16T06:42:00;16.40;94.60
7494;DHT22;3788;49.902;8.590;2022-09-16T06:44:27;16.50;94.60
7494;DHT22;3788;49.902;8.590;2022-09-16T06:46:53;16.60;94.30
7494;DHT22;3788;49.902;8.590;2022-09-16T06:49:20;16.70;94.10
7494;DHT22;3788;49.902;8.590;2022-09-16T06:51:47;16.80;93.90
7494;DHT22;3788;49.902;8.590;2022-09-16T06:54:13;16.80;93.60
7494;DHT22;3788;49.902;8.590;2022-09-16T06:56:42;16.80;93.20
7494;DHT22;3788;49.902;8.590;2022-09-16T06:59:09;16.80;93.10
7494;DHT22;3788;49.902;8.590;2022-09-16T07:01:38;16.70;93.00
7494;DHT22;3788;49.902;8.590;2022-09-16T07:04:06;16.70;93.00
7494;DHT22;3788;49.902;8.590;2022-09-16T07:06:35;16.80;92.90
7494;DHT22;3788;49.902;8.590;2022-09-16T07:09:02;16.80;92.80
7494;DHT22;3788;49.902;8.590;2022-09-16T07:11:29;16.80;92.70
7494;DHT22;3788;49.902;8.590;2022-09-16T07:13:58;16.80;92.70
7494;DHT22;3788;49.902;8.590;2022-09-16T07:16:25;16.80;92.60
7494;DHT22;3788;49.902;8.590;2022-09-16T07:18:53;16.80;92.60
7494;DHT22;3788;49.902;8.590;2022-09-16T07:21:22;16.80;92.40
7494;DHT22;3788;49.902;8.590;2022-09-16T07:23:50;17.00;92.40
7494;DHT22;3788;49.902;8.590;2022-09-16T07:26:27;17.50;92.30
7494;DHT22;3788;49.902;8.590;2022-09-16T07:28:55;18.10;91.70
7494;DHT22;3788;49.902;8.590;2022-09-16T07:31:26;18.40;90.90
7494;DHT22;3788;49.902;8.590;2022-09-16T07:33:54;18.40;90.30
7494;DHT22;3788;49.902;8.590;2022-09-16T07:36:22;18.30;90.40
7494;DHT22;3788;49.902;8.590;2022-09-16T07:38:50;18.10;90.40
7494;DHT22;3788;49.902;8.590;2022-09-16T07:41:19;18.00;90.60
7494;DHT22;3788;49.902;8.590;2022-09-16T07:43:46;17.90;90.40
7494;DHT22;3788;49.902;8.590;2022-09-16T07:46:14;17.70;90.00
7494;DHT22;3788;49.902;8.590;2022-09-16T07:48:44;17.60;90.20
7494;DHT22;3788;49.902;8.590;2022-09-16T07:51:12;17.50;90.10
7494;DHT22;3788;49.902;8.590;2022-09-16T07:53:39;17.30;90.10
7494;DHT22;3788;49.902;8.590;2022-09-16T07:56:08;17.30;90.30
7494;DHT22;3788;49.902;8.590;2022-09-16T07:58:35;17.20;90.20
7494;DHT22;3788;49.902;8.590;2022-09-16T08:01:02;17.30;90.40
7494;DHT22;3788;49.902;8.590;2022-09-16T08:03:30;17.40;90.10
7494;DHT22;3788;49.902;8.590;2022-09-16T08:06:00;17.50;90.00
7494;DHT22;3788;49.902;8.590;2022-09-16T08:08:28;17.60;90.00
7494;DHT22;3788;49.902;8.590;2022-09-16T08:10:55;17.70;88.70
7494;DHT22;3788;49.902;8.590;2022-09-16T08:13:23;17.70;87.90
7494;DHT22;3788;49.902;8.590;2022-09-16T08:15:52;17.70;87.90
7494;DHT22;3788;49.902;8.590;2022-09-16T08:18:19;17.60;87.80
7494;DHT22;3788;49.902;8.590;2022-09-16T08:20:46;17.70;88.00
7494;DHT22;3788;49.902;8.590;2022-09-16T08:23:15;18.00;87.40
7494;DHT22;3788;49.902;8.590;2022-09-16T08:25:41;18.60;86.30
7494;DHT22;3788;49.902;8.590;2022-09-16T08:28:11;18.90;84.30
7494;DHT22;3788;49.902;8.590;2022-09-16T08:30:39;19.00;83.10
7494;DHT22;3788;49.902;8.590;2022-09-16T08:33:06;19.10;82.70
7494;DHT22;3788;49.902;8.590;2022-09-16T08:35:33;19.40;81.60
7494;DHT22;3788;49.902;8.590;2022-09-16T08:37:59;19.60;81.00
7494;DHT22;3788;49.902;8.590;2022-09-16T08:40:32;19.60;81.10
7494;DHT22;3788;49.902;8.590;2022-09-16T08:45:32;19.90;80.20
7494;DHT22;3788;49.902;8.590;2022-09-16T08:48:15;20.50;77.90
7494;DHT22;3788;49.902;8.590;2022-09-16T08:50:45;21.20;77.00
7494;DHT22;3788;49.902;8.590;2022-09-16T08:53:15;21.50;74.80
7494;DHT22;3788;49.902;8.590;2022-09-16T08:55:47;21.20;74.00
7494;DHT22;3788;49.902;8.590;2022-09-16T08:58:17;20.60;74.90
7494;DHT22;3788;49.902;8.590;2022-09-16T09:00:45;20.40;76.40
7494;DHT22;3788;49.902;8.590;2022-09-16T09:03:18;20.60;75.70
7494;DHT22;3788;49.902;8.590;2022-09-16T09:05:50;20.70;74.50
7494;DHT22;3788;49.902;8.590;2022-09-16T09:08:30;20.40;71.70
7494;DHT22;3788;49.902;8.590;2022-09-16T09:11:03;20.30;71.50
7494;DHT22;3788;49.902;8.590;2022-09-16T09:13:44;20.60;69.00
7494;DHT22;3788;49.902;8.590;2022-09-16T09:16:23;21.30;67.90
7494;DHT22;3788;49.902;8.590;2022-09-16T09:18:59;22.00;67.10
7494;DHT22;3788;49.902;8.590;2022-09-16T09:21:39;22.70;64.90
7494;DHT22;3788;49.902;8.590;2022-09-16T09:24:39;23.30;62.50
7494;DHT22;3788;49.902;8.590;2022-09-16T09:27:14;23.60;61.60
7494;DHT22;3788;49.902;8.590;2022-09-16T09:35:31;22.50;62.20
7494;DHT22;3788;49.902;8.590;2022-09-16T09:40:57;22.70;60.50
7494;DHT22;3788;49.902;8.590;2022-09-16T09:43:31;23.20;59.90
7494;DHT22;3788;49.902;8.590;2022-09-16T09:46:03;23.60;59.60
7494;DHT22;3788;49.902;8.590;2022-09-16T09:48:36;24.00;59.60
7494;DHT22;3788;49.902;8.590;2022-09-16T09:51:05;24.20;58.10
7494;DHT22;3788;49.902;8.590;2022-09-16T09:53:41;24.00;58.60
7494;DHT22;3788;49.902;8.590;2022-09-16T09:56:16;24.20;59.30
7494;DHT22;3788;49.902;8.590;2022-09-16T09:58:50;24.20;57.60
7494;DHT22;3788;49.902;8.590;2022-09-16T10:01:20;24.20;57.60
7494;DHT22;3788;49.902;8.590;2022-09-16T10:03:48;23.80;57.40
7494;DHT22;3788;49.902;8.590;2022-09-16T10:06:18;23.20;57.20
7494;DHT22;3788;49.902;8.590;2022-09-16T10:08:48;22.50;58.00
7494;DHT22;3788;49.902;8.590;2022-09-16T10:11:17;22.00;59.10
7494;DHT22;3788;49.902;8.590;2022-09-16T10:13:51;21.60;59.60
7494;DHT22;3788;49.902;8.590;2022-09-16T10:16:19;21.30;60.50
7494;DHT22;3788;49.902;8.590;2022-09-16T10:18:55;21.00;61.70
7494;DHT22;3788;49.902;8.590;2022-09-16T10:21:22;20.70;62.50
7494;DHT22;3788;49.902;8.590;2022-09-16T10:23:53;20.40;63.20
7494;DHT22;3788;49.902;8.590;2022-09-16T10:26:23;20.20;63.90
7494;DHT22;3788;49.902;8.590;2022-09-16T10:28:59;20.10;65.00
7494;DHT22;3788;49.902;8.590;2022-09-16T10:31:30;20.20;64.80
7494;DHT22;3788;49.902;8.590;2022-09-16T10:33:58;20.30;64.00
7494;DHT22;3788;49.902;8.590;2022-09-16T10:36:31;20.20;62.70
7494;DHT22;3788;49.902;8.590;2022-09-16T10:39:00;20.00;62.40
7494;DHT22;3788;49.902;8.590;2022-09-16T10:41:31;19.90;63.20
7494;DHT22;3788;49.902;8.590;2022-09-16T10:44:01;19.80;63.80
7494;DHT22;3788;49.902;8.590;2022-09-16T10:46:30;19.70;64.40
7494;DHT22;3788;49.902;8.590;2022-09-16T10:48:59;19.60;64.50
7494;DHT22;3788;49.902;8.590;2022-09-16T10:51:28;19.50;64.80
7494;DHT22;3788;49.902;8.590;2022-09-16T10:53:56;19.30;65.30
7494;DHT22;3788;49.902;8.590;2022-09-16T10:56:26;19.20;66.30
7494;DHT22;3788;49.902;8.590;2022-09-16T10:59:08;19.00;67.10
7494;DHT22;3788;49.902;8.590;2022-09-16T11:01:41;18.90;67.60
7494;DHT22;3788;49.902;8.590;2022-09-16T11:04:34;18.90;67.60
7494;DHT22;3788;49.902;8.590;2022-09-16T11:07:11;18.90;68.20
7494;DHT22;3788;49.902;8.590;2022-09-16T11:09:51;18.90;67.80
7494;DHT22;3788;49.902;8.590;2022-09-16T11:12:57;19.00;67.80
7494;DHT22;3788;49.902;8.590;2022-09-16T11:15:36;19.00;67.80
7494;DHT22;3788;49.902;8.590;2022-09-16T11:18:16;19.10;68.10
7494;DHT22;3788;49.902;8.590;2022-09-16T11:21:13;19.10;67.40
7494;DHT22;3788;49.902;8.590;2022-09-16T11:23:54;19.10;67.50
7494;DHT22;3788;49.902;8.590;2022-09-16T11:26:29;19.10;67.10
7494;DHT22;3788;49.902;8.590;2022-09-16T11:29:16;19.10;67.00
7494;DHT22;3788;49.902;8.590;2022-09-16T11:31:55;19.20;67.90
7494;DHT22;3788;49.902;8.590;2022-09-16T11:34:37;19.30;67.90
7494;DHT22;3788;49.902;8.590;2022-09-16T11:37:14;19.40;67.20
7494;DHT22;3788;49.902;8.590;2022-09-16T11:39:55;19.40;67.90
7494;DHT22;3788;49.902;8.590;2022-09-16T11:42:27;19.40;67.90
7494;DHT22;3788;49.902;8.590;2022-09-16T11:45:04;19.40;67.10
7494;DHT22;3788;49.902;8.590;2022-09-16T11:47:47;19.30;67.50
7494;DHT22;3788;49.902;8.590;2022-09-16T11:50:27;19.30;68.90
7494;DHT22;3788;49.902;8.590;2022-09-16T11:53:23;19.30;68.60
7494;DHT22;3788;49.902;8.590;2022-09-16T11:55:56;19.40;69.30
7494;DHT22;3788;49.902;8.590;2022-09-16T11:58:30;19.30;68.80
7494;DHT22;3788;49.902;8.590;2022-09-16T12:01:04;19.40;69.00
7494;DHT22;3788;49.902;8.590;2022-09-16T12:03:39;19.40;69.30
7494;DHT22;3788;49.902;8.590;2022-09-16T12:06:12;19.50;68.40
7494;DHT22;3788;49.902;8.590;2022-09-16T12:08:49;19.60;67.60
7494;DHT22;3788;49.902;8.590;2022-09-16T12:11:20;19.70;68.10
7494;DHT22;3788;49.902;8.590;2022-09-16T12:13:50;19.70;67.30
7494;DHT22;3788;49.902;8.590;2022-09-16T12:16:26;19.70;67.10
7494;DHT22;3788;49.902;8.590;2022-09-16T12:19:02;19.70;67.40
7494;DHT22;3788;49.902;8.590;2022-09-16T12:21:34;19.60;66.70
7494;DHT22;3788;49.902;8.590;2022-09-16T12:24:05;19.50;67.30
7494;DHT22;3788;49.902;8.590;2022-09-16T12:26:37;19.40;67.50
7494;DHT22;3788;49.902;8.590;2022-09-16T12:29:10;19.30;67.80
7494;DHT22;3788;49.902;8.590;2022-09-16T12:31:41;19.30;69.10
7494;DHT22;3788;49.902;8.590;2022-09-16T12:34:12;19.10;70.90
7494;DHT22;3788;49.902;8.590;2022-09-16T12:36:43;18.90;72.10
7494;DHT22;3788;49.902;8.590;2022-09-16T12:39:12;18.80;74.20
7494;DHT22;3788;49.902;8.590;2022-09-16T12:41:51;18.50;75.20
7494;DHT22;3788;49.902;8.590;2022-09-16T12:44:39;18.40;76.20
7494;DHT22;3788;49.902;8.590;2022-09-16T12:50:57;18.30;76.90
7494;DHT22;3788;49.902;8.590;2022-09-16T12:53:49;18.40;77.10
7494;DHT22;3788;49.902;8.590;2022-09-16T12:56:28;18.50;76.00
7494;DHT22;3788;49.902;8.590;2022-09-16T12:59:11;18.60;74.80
7494;DHT22;3788;49.902;8.590;2022-09-16T13:01:44;18.70;73.70
7494;DHT22;3788;49.902;8.590;2022-09-16T13:04:16;18.80;72.80
7494;DHT22;3788;49.902;8.590;2022-09-16T13:06:47;18.80;72.70
7494;DHT22;3788;49.902;8.590;2022-09-16T13:09:21;18.80;71.80
7494;DHT22;3788;49.902;8.590;2022-09-16T13:11:57;18.70;71.10
7494;DHT22;3788;49.902;8.590;2022-09-16T13:14:29;18.70;71.00
7494;DHT22;3788;49.902;8.590;2022-09-16T13:16:58;18.60;71.20
7494;DHT22;3788;49.902;8.590;2022-09-16T13:19:33;18.60;71.60
7494;DHT22;3788;49.902;8.590;2022-09-16T13:22:18;18.60;71.60
7494;DHT22;3788;49.902;8.590;2022-09-16T13:24:49;18.60;71.80
7494;DHT22;3788;49.902;8.590;2022-09-16T13:27:28;18.60;71.10
7494;DHT22;3788;49.902;8.590;2022-09-16T13:30:24;18.50;71.20
7494;DHT22;3788;49.902;8.590;2022-09-16T13:35:46;18.40;72.70
7494;DHT22;3788;49.902;8.590;2022-09-16T13:38:24;18.40;73.50
7494;DHT22;3788;49.902;8.590;2022-09-16T13:41:01;18.40;73.70
7494;DHT22;3788;49.902;8.590;2022-09-16T13:43:30;18.30;73.70
7494;DHT22;3788;49.902;8.590;2022-09-16T13:46:06;18.20;73.70
7494;DHT22;3788;49.902;8.590;2022-09-16T13:48:53;18.20;73.30
7494;DHT22;3788;49.902;8.590;2022-09-16T13:51:21;18.20;73.50
7494;DHT22;3788;49.902;8.590;2022-09-16T13:53:51;18.10;74.40
7494;DHT22;3788;49.902;8.590;2022-09-16T13:56:41;18.10;75.40
7494;DHT22;3788;49.902;8.590;2022-09-16T13:59:28;18.20;77.00
7494;DHT22;3788;49.902;8.590;2022-09-16T14:02:06;18.20;77.90
7494;DHT22;3788;49.902;8.590;2022-09-16T14:04:55;18.20;78.10
7494;DHT22;3788;49.902;8.590;2022-09-16T14:07:36;18.10;78.90
7494;DHT22;3788;49.902;8.590;2022-09-16T14:10:12;18.00;82.20
7494;DHT22;3788;49.902;8.590;2022-09-16T14:12:48;17.90;84.40
7494;DHT22;3788;49.902;8.590;2022-09-16T14:15:19;17.90;85.00
7494;DHT22;3788;49.902;8.590;2022-09-16T14:17:48;17.90;85.40
7494;DHT22;3788;49.902;8.590;2022-09-16T14:20:18;17.90;82.50
7494;DHT22;3788;49.902;8.590;2022-09-16T14:22:45;17.80;80.60
7494;DHT22;3788;49.902;8.590;2022-09-16T14:25:28;17.70;81.20
7494;DHT22;3788;49.902;8.590;2022-09-16T14:28:07;17.60;80.90
7494;DHT22;3788;49.902;8.590;2022-09-16T14:30:33;17.60;80.60
7494;DHT22;3788;49.902;8.590;2022-09-16T14:33:01;17.50;80.80
7494;DHT22;3788;49.902;8.590;2022-09-16T14:35:28;17.60;81.30
7494;DHT22;3788;49.902;8.590;2022-09-16T14:37:59;17.60;81.20
7494;DHT22;3788;49.902;8.590;2022-09-16T14:40:29;17.60;80.60
7494;DHT22;3788;49.902;8.590;2022-09-16T14:42:58;17.60;79.50
7494;DHT22;3788;49.902;8.590;2022-09-16T14:45:28;17.60;79.80
7494;DHT22;3788;49.902;8.590;2022-09-16T14:47:57;17.60;80.00
7494;DHT22;3788;49.902;8.590;2022-09-16T14:50:27;17.60;80.10
7494;DHT22;3788;49.902;8.590;2022-09-16T14:52:56;17.60;80.50
7494;DHT22;3788;49.902;8.590;2022-09-16T14:55:25;17.70;80.40
7494;DHT22;3788;49.902;8.590;2022-09-16T14:57:55;17.70;80.20
7494;DHT22;3788;49.902;8.590;2022-09-16T15:00:25;17.70;80.50
7494;DHT22;3788;49.902;8.590;2022-09-16T15:02:56;17.80;81.80
7494;DHT22;3788;49.902;8.590;2022-09-16T15:05:27;17.80;82.70
7494;DHT22;3788;49.902;8.590;2022-09-16T15:08:09;17.80;83.00
7494;DHT22;3788;49.902;8.590;2022-09-16T15:10:37;17.70;82.40
7494;DHT22;3788;49.902;8.590;2022-09-16T15:13:09;17.70;84.00
7494;DHT22;3788;49.902;8.590;2022-09-16T15:15:37;17.70;84.80
7494;DHT22;3788;49.902;8.590;2022-09-16T15:18:18;17.60;85.00
7494;DHT22;3788;49.902;8.590;2022-09-16T15:20:50;17.50;85.00
7494;DHT22;3788;49.902;8.590;2022-09-16T15:23:21;17.40;85.60
7494;DHT22;3788;49.902;8.590;2022-09-16T15:25:54;17.30;86.40
7494;DHT22;3788;49.902;8.590;2022-09-16T15:28:23;17.20;87.30
7494;DHT22;3788;49.902;8.590;2022-09-16T15:30:51;17.10;87.60
7494;DHT22;3788;49.902;8.590;2022-09-16T15:33:25;17.10;88.20
7494;DHT22;3788;49.902;8.590;2022-09-16T15:35:52;17.10;88.30
7494;DHT22;3788;49.902;8.590;2022-09-16T15:38:20;17.10;87.70
7494;DHT22;3788;49.902;8.590;2022-09-16T15:40:59;17.10;87.00
7494;DHT22;3788;49.902;8.590;2022-09-16T15:43:28;17.10;85.00
7494;DHT22;3788;49.902;8.590;2022-09-16T15:45:57;17.10;84.70
7494;DHT22;3788;49.902;8.590;2022-09-16T15:48:27;17.10;83.50
7494;DHT22;3788;49.902;8.590;2022-09-16T15:50:56;17.10;81.50
7494;DHT22;3788;49.902;8.590;2022-09-16T15:53:36;17.00;80.10
7494;DHT22;3788;49.902;8.590;2022-09-16T15:56:07;16.90;79.80
7494;DHT22;3788;49.902;8.590;2022-09-16T15:58:38;16.80;77.80
7494;DHT22;3788;49.902;8.590;2022-09-16T16:01:39;16.60;77.90
7494;DHT22;3788;49.902;8.590;2022-09-16T16:04:09;16.40;77.80
7494;DHT22;3788;49.902;8.590;2022-09-16T16:06:50;16.20;78.10
7494;DHT22;3788;49.902;8.590;2022-09-16T16:09:35;16.10;79.00
7494;DHT22;3788;49.902;8.590;2022-09-16T16:12:05;16.00;79.80
7494;DHT22;3788;49.902;8.590;2022-09-16T16:14:35;15.90;80.60
7494;DHT22;3788;49.902;8.590;2022-09-16T16:17:11;15.90;81.10
7494;DHT22;3788;49.902;8.590;2022-09-16T16:19:51;15.80;81.70
7494;DHT22;3788;49.902;8.590;2022-09-16T16:22:21;15.70;82.20
7494;DHT22;3788;49.902;8.590;2022-09-16T16:24:54;15.60;83.00
7494;DHT22;3788;49.902;8.590;2022-09-16T16:27:21;15.60;86.50
7494;DHT22;3788;49.902;8.590;2022-09-16T16:30:05;15.60;87.70
7494;DHT22;3788;49.902;8.590;2022-09-16T16:32:37;15.50;88.80
7494;DHT22;3788;49.902;8.590;2022-09-16T16:35:05;15.40;88.80
7494;DHT22;3788;49.902;8.590;2022-09-16T16:37:32;15.30;88.90
7494;DHT22;3788;49.902;8.590;2022-09-16T16:39:58;15.20;88.90
7494;DHT22;3788;49.902;8.590;2022-09-16T16:42:26;15.10;89.30
7494;DHT22;3788;49.902;8.590;2022-09-16T16:44:57;15.00;89.40
7494;DHT22;3788;49.902;8.590;2022-09-16T16:47:24;14.90;89.70
7494;DHT22;3788;49.902;8.590;2022-09-16T16:49:52;14.90;90.00
7494;DHT22;3788;49.902;8.590;2022-09-16T16:52:19;14.80;90.10